createdAt,value
2022-08-22T00:01:00.658Z,56.00
2022-08-22T00:02:42.776Z,45.00
2022-08-22T00:02:57.377Z,74.30
2022-08-22T00:03:03.566Z,48.10
2022-08-22T00:03:42.602Z,77.30
2022-08-22T00:06:19.134Z,56.20
2022-08-22T00:08:58.510Z,56.40
2022-08-22T00:11:37.394Z,56.40
2022-08-22T00:14:15.782Z,80.50
2022-08-22T00:16:54.728Z,76.20
2022-08-22T00:19:31.547Z,76.90
2022-08-22T00:22:04.468Z,56.70
2022-08-22T00:24:40.527Z,76.70
2022-08-22T00:27:14.394Z,56.50
2022-08-22T00:29:45.863Z,56.30
2022-08-22T00:32:21.492Z,56.50
2022-08-22T00:34:58.364Z,75.70
2022-08-22T00:37:31.591Z,72.00
2022-08-22T00:40:10.466Z,76.00
2022-08-22T00:43:09.208Z,76.30
2022-08-22T00:46:09.570Z,56.50
2022-08-22T00:49:03.446Z,75.20
2022-08-22T00:52:08.986Z,75.30
2022-08-22T00:55:00.521Z,75.80
2022-08-22T00:57:44.648Z,76.10
2022-08-22T01:00:18.220Z,56.70
2022-08-22T01:03:08.856Z,76.30
2022-08-22T01:05:54.153Z,56.60
2022-08-22T01:08:38.142Z,56.80
2022-08-22T01:11:25.046Z,56.60
2022-08-22T01:14:09.779Z,76.40
2022-08-22T01:17:01.292Z,56.80
2022-08-22T01:20:13.767Z,77.70
2022-08-22T01:23:19.583Z,57.60
2022-08-22T01:26:19.883Z,80.90
2022-08-22T01:29:27.707Z,57.90
2022-08-22T01:32:42.200Z,77.30
2022-08-22T01:35:29.641Z,58.20
2022-08-22T01:38:27.102Z,77.40
2022-08-22T01:41:18.647Z,58.50
2022-08-22T01:44:15.348Z,58.80
2022-08-22T01:46:58.899Z,59.30
2022-08-22T01:49:33.118Z,59.10
2022-08-22T01:52:07.827Z,59.20
2022-08-22T01:54:44.814Z,79.60
2022-08-22T01:57:14.689Z,59.40
2022-08-22T01:59:47.524Z,78.60
2022-08-22T02:02:33.742Z,59.10
2022-08-22T02:05:07.910Z,61.20
2022-08-22T02:07:50.063Z,59.30
2022-08-22T02:10:26.907Z,83.00
2022-08-22T02:13:07.776Z,83.30
2022-08-22T02:15:48.310Z,59.60
2022-08-22T02:18:26.143Z,59.90
2022-08-22T02:21:04.048Z,80.90
2022-08-22T02:23:47.294Z,60.10
2022-08-22T02:26:21.625Z,60.20
2022-08-22T02:28:59.003Z,60.30
2022-08-22T02:31:40.329Z,60.20
2022-08-22T02:34:37.279Z,60.10
2022-08-22T02:37:14.260Z,70.20
2022-08-22T02:39:52.033Z,60.20
2022-08-22T02:42:28.330Z,60.20
2022-08-22T02:45:04.332Z,60.20
2022-08-22T02:47:42.434Z,60.10
2022-08-22T02:50:21.233Z,60.20
2022-08-22T02:53:02.735Z,59.90
2022-08-22T02:55:42.175Z,59.70
2022-08-22T02:58:21.685Z,59.90
2022-08-22T03:00:53.189Z,59.40
2022-08-22T03:03:27.458Z,59.60
2022-08-22T03:06:04.322Z,79.40
2022-08-22T03:08:35.972Z,60.10
2022-08-22T03:11:20.683Z,81.20
2022-08-22T03:13:57.982Z,60.10
2022-08-22T03:16:35.410Z,60.10
2022-08-22T03:19:13.246Z,60.20
2022-08-22T03:21:54.720Z,60.50
2022-08-22T03:24:29.234Z,84.40
2022-08-22T03:27:07.656Z,60.60
2022-08-22T03:29:40.460Z,72.40
2022-08-22T03:32:14.069Z,81.10
2022-08-22T03:34:57.930Z,65.40
2022-08-22T03:37:37.766Z,60.90
2022-08-22T03:40:22.737Z,61.10
2022-08-22T03:43:18.907Z,61.20
2022-08-22T03:46:17.815Z,61.50
2022-08-22T03:49:09.626Z,61.40
2022-08-22T03:52:03.174Z,61.40
2022-08-22T03:54:57.722Z,84.50
2022-08-22T03:58:18.469Z,80.30
2022-08-22T04:01:21.959Z,61.60
2022-08-22T04:04:34.895Z,81.20
2022-08-22T04:07:31.436Z,61.70
2022-08-22T04:10:31.130Z,61.90
2022-08-22T04:13:25.026Z,61.90
2022-08-22T04:16:26.256Z,61.90
2022-08-22T04:19:13.403Z,61.80
2022-08-22T04:22:13.617Z,61.90
2022-08-22T04:24:59.672Z,62.10
2022-08-22T04:27:34.003Z,62.50
2022-08-22T04:30:10.581Z,62.50
2022-08-22T04:32:43.454Z,62.20
2022-08-22T04:35:18.814Z,62.30
2022-08-22T04:37:52.351Z,62.30
2022-08-22T04:40:25.423Z,62.60
2022-08-22T04:42:58.216Z,81.80
2022-08-22T04:45:33.701Z,62.70
2022-08-22T04:48:09.021Z,83.40
2022-08-22T04:50:44.446Z,81.90
2022-08-22T04:53:26.595Z,67.60
2022-08-22T04:56:08.505Z,81.20
2022-08-22T04:58:56.357Z,61.80
2022-08-22T05:01:38.317Z,61.80
2022-08-22T05:04:09.495Z,61.90
2022-08-22T05:06:42.580Z,61.70
2022-08-22T05:09:16.313Z,62.10
2022-08-22T05:14:19.134Z,81.30
2022-08-22T05:16:53.896Z,84.60
2022-08-22T05:19:31.896Z,80.30
2022-08-22T05:22:00.866Z,80.50
2022-08-22T05:24:34.090Z,84.30
2022-08-22T05:27:11.189Z,79.40
2022-08-22T05:29:41.788Z,61.50
2022-08-22T05:32:18.047Z,61.50
2022-08-22T05:34:47.936Z,75.30
2022-08-22T05:37:23.529Z,62.20
2022-08-22T05:39:57.535Z,62.30
2022-08-22T05:42:30.822Z,62.30
2022-08-22T05:47:41.062Z,62.00
2022-08-22T05:50:14.466Z,61.70
2022-08-22T05:52:51.998Z,61.50
2022-08-22T05:55:26.528Z,61.40
2022-08-22T05:58:17.965Z,61.40
2022-08-22T06:00:52.104Z,61.40
2022-08-22T06:03:29.126Z,61.00
2022-08-22T06:06:00.655Z,80.30
2022-08-22T06:08:34.592Z,60.70
2022-08-22T06:11:08.057Z,60.90
2022-08-22T06:13:41.387Z,61.10
2022-08-22T06:16:16.908Z,61.00
2022-08-22T06:18:46.904Z,61.00
2022-08-22T06:21:21.749Z,60.90
2022-08-22T06:23:54.227Z,61.40
2022-08-22T06:26:22.550Z,80.40
2022-08-22T06:28:55.676Z,61.40
2022-08-22T06:31:28.147Z,61.20
2022-08-22T06:34:05.757Z,83.20
2022-08-22T06:36:36.259Z,61.50
2022-08-22T06:39:15.933Z,61.70
2022-08-22T06:41:50.941Z,83.40
2022-08-22T06:44:23.219Z,61.80
2022-08-22T06:46:56.299Z,61.60
2022-08-22T06:49:27.716Z,61.90
2022-08-22T06:52:01.023Z,62.30
2022-08-22T06:54:34.485Z,62.40
2022-08-22T06:57:04.925Z,81.00
2022-08-22T06:59:38.251Z,62.50
2022-08-22T07:02:16.624Z,81.50
2022-08-22T07:04:48.832Z,63.00
2022-08-22T07:07:19.739Z,62.70
2022-08-22T07:09:55.303Z,62.00
2022-08-22T07:12:27.122Z,62.00
2022-08-22T07:14:59.433Z,80.90
2022-08-22T07:17:30.639Z,62.40
2022-08-22T07:20:05.044Z,63.00
2022-08-22T07:22:36.580Z,80.90
2022-08-22T07:25:11.116Z,80.70
2022-08-22T07:27:51.830Z,63.20
2022-08-22T07:30:28.232Z,62.10
2022-08-22T07:33:25.817Z,61.50
2022-08-22T07:35:59.679Z,61.00
2022-08-22T07:38:35.816Z,60.60
2022-08-22T07:41:14.030Z,78.50
2022-08-22T07:43:47.043Z,59.50
2022-08-22T07:46:27.491Z,59.00
2022-08-22T07:49:09.058Z,76.00
2022-08-22T07:51:44.295Z,58.40
2022-08-22T07:54:14.989Z,75.10
2022-08-22T07:56:46.622Z,56.00
2022-08-22T07:59:18.114Z,55.20
2022-08-22T08:01:49.746Z,55.00
2022-08-22T08:04:23.280Z,53.90
2022-08-22T08:06:57.103Z,53.40
2022-08-22T08:09:28.799Z,52.10
2022-08-22T08:14:27.904Z,52.20
2022-08-22T08:17:03.231Z,69.10
2022-08-22T08:19:34.436Z,51.90
2022-08-22T08:22:04.885Z,50.10
2022-08-22T08:24:40.334Z,49.40
2022-08-22T08:27:33.057Z,49.50
2022-08-22T08:30:04.679Z,48.90
2022-08-22T08:32:37.331Z,65.20
2022-08-22T08:35:09.120Z,48.00
2022-08-22T08:37:46.485Z,47.70
2022-08-22T08:40:27.401Z,47.20
2022-08-22T08:43:31.355Z,45.20
2022-08-22T08:46:38.765Z,62.00
2022-08-22T08:49:42.115Z,43.50
2022-08-22T08:52:52.177Z,42.80
2022-08-22T08:55:31.977Z,42.80
2022-08-22T08:58:26.624Z,42.00
2022-08-22T09:01:06.806Z,41.60
2022-08-22T09:04:06.937Z,39.10
2022-08-22T09:07:07.995Z,38.50
2022-08-22T09:09:57.322Z,38.40
2022-08-22T09:12:56.017Z,38.60
2022-08-22T09:15:38.929Z,39.70
2022-08-22T09:18:38.125Z,40.00
2022-08-22T09:21:31.359Z,55.80
2022-08-22T09:24:35.090Z,37.70
2022-08-22T09:27:10.203Z,37.00
2022-08-22T09:29:54.724Z,37.70
2022-08-22T09:32:36.151Z,52.90
2022-08-22T09:35:09.345Z,38.00
2022-08-22T09:37:48.669Z,37.50
2022-08-22T09:43:07.270Z,37.70
2022-08-22T09:45:50.107Z,53.70
2022-08-22T09:48:44.117Z,38.00
2022-08-22T09:51:31.615Z,36.60
2022-08-22T09:54:31.614Z,56.60
2022-08-22T09:57:22.513Z,37.30
2022-08-22T10:00:15.738Z,36.70
2022-08-22T10:02:52.428Z,36.30
2022-08-22T10:05:39.513Z,54.40
2022-08-22T10:08:40.371Z,50.10
2022-08-22T10:11:23.792Z,34.70
2022-08-22T10:14:01.291Z,35.20
2022-08-22T10:17:05.562Z,49.30
2022-08-22T10:19:41.524Z,34.30
2022-08-22T10:22:31.672Z,33.30
2022-08-22T10:25:29.084Z,34.10
2022-08-22T10:28:12.011Z,33.60
2022-08-22T10:30:52.393Z,33.50
2022-08-22T10:33:29.193Z,48.00
2022-08-22T10:36:04.997Z,31.50
2022-08-22T10:38:44.244Z,45.60
2022-08-22T10:41:25.965Z,45.20
2022-08-22T10:44:04.116Z,30.30
2022-08-22T10:46:42.971Z,43.30
2022-08-22T10:49:20.624Z,44.90
2022-08-22T10:51:56.842Z,44.40
2022-08-22T10:54:47.360Z,44.30
2022-08-22T10:57:39.752Z,47.90
2022-08-22T11:00:15.134Z,28.90
2022-08-22T11:02:53.646Z,46.10
2022-08-22T11:05:35.306Z,41.90
2022-08-22T11:08:22.145Z,40.60
2022-08-22T11:11:17.784Z,42.40
2022-08-22T11:13:59.773Z,31.10
2022-08-22T11:16:45.603Z,26.70
2022-08-22T11:19:28.581Z,39.50
2022-08-22T11:22:10.165Z,27.60
2022-08-22T11:25:04.778Z,41.60
2022-08-22T11:27:44.343Z,27.60
2022-08-22T11:30:18.743Z,28.50
2022-08-22T11:33:17.787Z,42.40
2022-08-22T11:35:55.989Z,28.00
2022-08-22T11:38:36.210Z,40.80
2022-08-22T11:41:11.096Z,28.20
2022-08-22T11:43:51.850Z,28.20
2022-08-22T11:46:29.271Z,41.00
2022-08-22T11:49:32.731Z,41.10
2022-08-22T11:52:13.746Z,40.10
2022-08-22T11:54:58.696Z,26.80
2022-08-22T11:57:34.017Z,27.40
2022-08-22T12:00:16.900Z,39.70
2022-08-22T12:03:02.292Z,39.40
2022-08-22T12:05:34.522Z,26.60
2022-08-22T12:08:11.412Z,29.10
2022-08-22T12:10:49.054Z,26.70
2022-08-22T12:13:34.938Z,27.00
2022-08-22T12:16:12.767Z,26.60
2022-08-22T12:18:52.839Z,38.00
2022-08-22T12:21:49.613Z,26.00
2022-08-22T12:24:46.003Z,36.30
2022-08-22T12:27:40.808Z,24.90
2022-08-22T12:30:22.763Z,25.30
2022-08-22T12:33:13.136Z,36.40
2022-08-22T12:35:54.884Z,25.10
2022-08-22T12:38:39.940Z,25.10
2022-08-22T12:41:38.339Z,36.60
2022-08-22T12:44:24.341Z,36.10
2022-08-22T12:47:06.531Z,24.80
2022-08-22T12:49:52.555Z,24.80
2022-08-22T12:52:35.638Z,25.00
2022-08-22T12:55:37.805Z,27.30
2022-08-22T12:58:15.318Z,25.30
2022-08-22T13:00:49.609Z,24.90
2022-08-22T13:03:27.299Z,25.30
2022-08-22T13:06:00.572Z,36.40
2022-08-22T13:08:32.141Z,37.00
2022-08-22T13:11:09.850Z,25.40
2022-08-22T13:13:56.155Z,24.70
2022-08-22T13:16:36.509Z,34.40
2022-08-22T13:19:13.481Z,23.50
2022-08-22T13:21:48.895Z,35.40
2022-08-22T13:24:38.894Z,24.90
2022-08-22T13:27:15.364Z,25.20
2022-08-22T13:29:49.280Z,24.60
2022-08-22T13:32:26.428Z,24.00
2022-08-22T13:34:57.796Z,37.40
2022-08-22T13:37:32.443Z,37.10
2022-08-22T13:40:05.284Z,24.40
2022-08-22T13:42:40.161Z,35.10
2022-08-22T13:45:16.396Z,35.40
2022-08-22T13:47:54.912Z,36.50
2022-08-22T13:50:25.925Z,24.30
2022-08-22T13:53:02.262Z,35.80
2022-08-22T13:55:36.163Z,23.90
2022-08-22T13:58:13.942Z,37.00
2022-08-22T14:01:25.241Z,24.20
2022-08-22T14:03:59.994Z,24.20
2022-08-22T14:06:37.899Z,24.20
2022-08-22T14:09:31.279Z,36.00
2022-08-22T14:12:12.772Z,37.10
2022-08-22T14:14:45.863Z,37.50
2022-08-22T14:17:17.597Z,36.70
2022-08-22T14:19:59.301Z,24.50
2022-08-22T14:22:35.170Z,24.00
2022-08-22T14:25:07.645Z,24.00
2022-08-22T14:27:39.664Z,23.60
2022-08-22T14:30:15.381Z,35.50
2022-08-22T14:32:48.253Z,36.10
2022-08-22T14:35:29.202Z,35.90
2022-08-22T14:38:27.171Z,35.60
2022-08-22T14:41:00.514Z,23.40
2022-08-22T14:43:50.561Z,35.20
2022-08-22T14:46:26.721Z,34.80
2022-08-22T14:49:29.861Z,34.20
2022-08-22T14:52:05.307Z,33.70
2022-08-22T14:54:34.453Z,33.00
2022-08-22T14:57:05.043Z,22.80
2022-08-22T14:59:50.084Z,34.90
2022-08-22T15:02:26.244Z,22.30
2022-08-22T15:04:56.037Z,33.70
2022-08-22T15:07:29.182Z,34.30
2022-08-22T15:10:03.506Z,34.30
2022-08-22T15:12:36.513Z,23.10
2022-08-22T15:15:11.305Z,23.00
2022-08-22T15:17:45.681Z,23.40
2022-08-22T15:20:31.307Z,34.50
2022-08-22T15:23:09.704Z,23.20
2022-08-22T15:25:42.179Z,34.80
2022-08-22T15:28:22.582Z,37.20
2022-08-22T15:31:03.447Z,37.70
2022-08-22T15:33:34.653Z,25.80
2022-08-22T15:36:15.657Z,41.50
2022-08-22T15:38:48.086Z,38.60
2022-08-22T15:41:46.717Z,24.70
2022-08-22T15:44:32.183Z,24.00
2022-08-22T15:47:11.827Z,37.30
2022-08-22T15:49:52.421Z,37.30
2022-08-22T15:52:28.472Z,38.70
2022-08-22T15:55:22.037Z,37.60
2022-08-22T15:58:02.486Z,33.70
2022-08-22T16:00:43.369Z,36.80
2022-08-22T16:03:24.836Z,25.20
2022-08-22T16:05:56.066Z,26.40
2022-08-22T16:08:32.690Z,36.90
2022-08-22T16:11:28.437Z,35.40
2022-08-22T16:14:21.369Z,27.80
2022-08-22T16:17:03.173Z,41.20
2022-08-22T16:19:33.376Z,31.40
2022-08-22T16:22:19.456Z,37.90
2022-08-22T16:25:03.415Z,38.10
2022-08-22T16:27:33.967Z,30.90
2022-08-22T16:30:17.016Z,38.90
2022-08-22T16:32:57.248Z,39.20
2022-08-22T16:36:02.755Z,38.40
2022-08-22T16:38:41.186Z,25.50
2022-08-22T16:41:25.678Z,38.00
2022-08-22T16:44:18.522Z,25.30
2022-08-22T16:46:48.546Z,38.50
2022-08-22T16:49:27.577Z,25.50
2022-08-22T16:52:35.148Z,32.50
2022-08-22T16:55:05.982Z,25.90
2022-08-22T16:58:05.001Z,39.20
2022-08-22T17:00:45.337Z,40.10
2022-08-22T17:03:26.289Z,43.20
2022-08-22T17:06:15.810Z,29.90
2022-08-22T17:08:58.320Z,39.50
2022-08-22T17:11:39.658Z,27.20
2022-08-22T17:14:25.376Z,25.70
2022-08-22T17:17:13.597Z,40.70
2022-08-22T17:19:55.812Z,25.80
2022-08-22T17:22:31.356Z,39.90
2022-08-22T17:25:17.028Z,40.00
2022-08-22T17:27:51.474Z,33.50
2022-08-22T17:30:24.545Z,32.40
2022-08-22T17:33:12.124Z,40.40
2022-08-22T17:36:04.684Z,25.50
2022-08-22T17:38:47.343Z,25.80
2022-08-22T17:41:27.613Z,25.80
2022-08-22T17:44:08.898Z,25.70
2022-08-22T17:46:45.742Z,41.50
2022-08-22T17:49:31.125Z,42.10
2022-08-22T17:52:07.436Z,26.80
2022-08-22T17:54:41.579Z,27.30
2022-08-22T17:57:14.486Z,27.40
2022-08-22T17:59:50.649Z,27.30
2022-08-22T18:02:24.126Z,27.80
2022-08-22T18:05:02.978Z,27.90
2022-08-22T18:07:45.922Z,28.00
2022-08-22T18:10:23.166Z,28.10
2022-08-22T18:13:03.485Z,28.30
2022-08-22T18:15:42.069Z,43.70
2022-08-22T18:18:19.960Z,28.20
2022-08-22T18:20:57.914Z,28.50
2022-08-22T18:23:40.342Z,28.40
2022-08-22T18:26:20.551Z,28.40
2022-08-22T18:28:54.281Z,28.90
2022-08-22T18:31:39.102Z,29.00
2022-08-22T18:34:16.906Z,28.80
2022-08-22T18:36:55.633Z,44.30
2022-08-22T18:39:29.035Z,28.60
2022-08-22T18:42:05.079Z,28.70
2022-08-22T18:44:38.997Z,44.70
2022-08-22T18:47:16.512Z,44.30
2022-08-22T18:49:48.398Z,28.80
2022-08-22T18:52:33.905Z,29.10
2022-08-22T18:55:27.067Z,29.20
2022-08-22T18:58:28.822Z,29.00
2022-08-22T19:01:10.243Z,29.30
2022-08-22T19:03:53.240Z,29.30
2022-08-22T19:06:48.389Z,29.30
2022-08-22T19:09:42.491Z,29.30
2022-08-22T19:12:31.418Z,29.30
2022-08-22T19:15:23.800Z,48.90
2022-08-22T19:18:19.780Z,29.80
2022-08-22T19:21:37.870Z,29.40
2022-08-22T19:24:10.832Z,29.00
2022-08-22T19:26:44.427Z,29.20
2022-08-22T19:29:49.999Z,29.70
2022-08-22T19:32:51.171Z,29.40
2022-08-22T19:35:22.235Z,29.70
2022-08-22T19:37:54.860Z,30.00
2022-08-22T19:40:49.319Z,29.80
2022-08-22T19:43:40.966Z,46.40
2022-08-22T19:46:12.681Z,30.40
2022-08-22T19:48:47.583Z,46.40
2022-08-22T19:51:28.130Z,30.60
2022-08-22T19:54:16.997Z,47.00
2022-08-22T19:56:59.585Z,30.80
2022-08-22T19:59:46.770Z,47.20
2022-08-22T20:02:31.857Z,46.80
2022-08-22T20:05:18.453Z,38.80
2022-08-22T20:08:00.514Z,31.20
2022-08-22T20:10:35.385Z,47.30
2022-08-22T20:13:08.530Z,31.20
2022-08-22T20:16:02.126Z,46.80
2022-08-22T20:19:02.003Z,48.10
2022-08-22T20:21:58.075Z,47.90
2022-08-22T20:24:39.110Z,32.00
2022-08-22T20:27:15.360Z,32.20
2022-08-22T20:29:51.078Z,31.90
2022-08-22T20:32:24.145Z,46.80
2022-08-22T20:34:57.940Z,46.80
2022-08-22T20:38:02.763Z,47.30
2022-08-22T20:40:53.522Z,31.20
2022-08-22T20:43:28.349Z,30.80
2022-08-22T20:46:13.273Z,30.80
2022-08-22T20:48:45.751Z,47.80
2022-08-22T20:51:17.338Z,31.70
2022-08-22T20:53:52.767Z,31.90
2022-08-22T20:56:37.123Z,32.50
2022-08-22T20:59:25.730Z,50.20
2022-08-22T21:01:58.116Z,33.10
2022-08-22T21:04:33.570Z,33.40
2022-08-22T21:07:03.204Z,33.80
2022-08-22T21:14:47.149Z,35.10
2022-08-22T21:17:21.604Z,35.10
2022-08-22T21:19:51.673Z,35.30
2022-08-22T21:22:25.725Z,35.20
2022-08-22T21:24:57.135Z,35.10
2022-08-22T21:27:28.550Z,35.10
2022-08-22T21:32:34.734Z,35.40
2022-08-22T21:35:06.012Z,35.00
2022-08-22T21:37:40.449Z,52.90
2022-08-22T21:40:16.960Z,53.80
2022-08-22T21:42:59.055Z,36.00
2022-08-22T21:45:29.481Z,52.20
2022-08-22T21:50:34.702Z,35.50
2022-08-22T21:53:10.342Z,35.40
2022-08-22T21:55:42.934Z,35.60
2022-08-22T21:58:36.001Z,54.00
2022-08-22T22:01:30.059Z,35.70
2022-08-22T22:03:59.451Z,35.70
2022-08-22T22:06:28.885Z,35.60
2022-08-22T22:11:25.660Z,54.30
2022-08-22T22:16:26.556Z,36.80
2022-08-22T22:21:23.214Z,56.70
2022-08-22T22:23:52.711Z,37.70
2022-08-22T22:26:21.411Z,37.80
2022-08-22T22:31:19.240Z,38.40
2022-08-22T22:36:19.210Z,39.60
2022-08-22T22:41:19.167Z,40.20
2022-08-22T22:48:44.124Z,49.10
2022-08-22T22:51:13.581Z,41.20
2022-08-22T22:56:15.847Z,41.90
2022-08-22T22:58:47.507Z,42.00
2022-08-22T23:01:18.436Z,42.00
2022-08-22T23:06:18.286Z,42.70
2022-08-22T23:08:47.303Z,42.80
2022-08-22T23:11:18.578Z,43.00
2022-08-22T23:13:49.162Z,43.40
2022-08-22T23:16:19.590Z,43.30
2022-08-22T23:18:48.091Z,62.40
2022-08-22T23:21:19.209Z,43.90
2022-08-22T23:31:17.925Z,43.90
2022-08-22T23:33:46.632Z,44.00
2022-08-22T23:36:17.780Z,44.00
2022-08-22T23:38:46.984Z,44.10
2022-08-22T23:41:17.909Z,44.20
2022-08-22T23:43:49.089Z,44.80
2022-08-22T23:46:20.705Z,45.10
2022-08-22T23:48:48.885Z,63.90
2022-08-22T23:51:23.095Z,45.20
2022-08-22T23:56:22.638Z,45.50
2022-08-22T23:58:53.162Z,64.50
